Time;durP1;ratioP1;P1;durP2;ratioP2;P2;SDS_P1;SDS_P2;PMS_P1;PMS_P2;Temp;Humidity;BMP_temperature;BMP_pressure;BME280_temperature;BME280_humidity;BME280_pressure;Samples;Min_cycle;Max_cycle;Signal;HPM_P1;HPM_P2
2021/07/02 00:02:20;;;;;;;1.33;1.10;;;14.70;98.00;;;;;;5092505;28;20454;-66
2021/07/02 00:04:48;;;;;;;1.67;1.40;;;14.60;98.00;;;;;;5092166;28;20492;-68
2021/07/02 00:07:15;;;;;;;1.50;1.10;;;14.50;98.00;;;;;;5092246;28;20454;-67
2021/07/02 00:09:42;;;;;;;1.40;1.20;;;14.50;98.00;;;;;;5092189;28;20464;-66
2021/07/02 00:12:09;;;;;;;1.40;1.40;;;14.50;98.00;;;;;;5092217;28;20446;-67
2021/07/02 00:14:36;;;;;;;1.57;1.20;;;14.50;98.00;;;;;;5091947;28;20494;-65
2021/07/02 00:17:03;;;;;;;2.53;1.20;;;14.40;98.00;;;;;;5091936;28;20480;-67
2021/07/02 00:19:32;;;;;;;1.20;1.10;;;14.30;98.00;;;;;;5091873;28;20464;-66
2021/07/02 00:22:00;;;;;;;1.60;1.23;;;14.30;98.00;;;;;;5091269;28;20488;-66
2021/07/02 00:24:29;;;;;;;1.20;1.00;;;14.30;98.00;;;;;;5091248;28;20507;-66
2021/07/02 00:26:56;;;;;;;4.90;1.50;;;14.30;98.00;;;;;;5091310;28;20463;-64
2021/07/02 00:29:23;;;;;;;1.40;1.30;;;14.30;98.00;;;;;;5091293;28;20488;-66
2021/07/02 00:31:52;;;;;;;1.30;1.10;;;14.40;98.00;;;;;;5092186;28;20820;-64
2021/07/02 00:34:19;;;;;;;3.93;1.30;;;14.40;98.00;;;;;;5091917;28;20507;-65
2021/07/02 00:36:46;;;;;;;1.63;1.30;;;14.50;98.00;;;;;;5091924;28;20484;-66
2021/07/02 00:39:14;;;;;;;1.20;1.10;;;14.40;98.00;;;;;;5091679;28;20529;-65
2021/07/02 00:41:42;;;;;;;2.13;1.30;;;14.40;98.00;;;;;;5092019;28;20464;-65
2021/07/02 00:44:10;;;;;;;1.50;1.20;;;14.30;98.00;;;;;;5091799;28;20936;-66
2021/07/02 00:46:39;;;;;;;1.20;1.20;;;14.30;98.00;;;;;;5092004;28;20521;-66
2021/07/02 00:49:07;;;;;;;1.63;1.30;;;14.30;98.00;;;;;;5091878;28;20506;-66
2021/07/02 00:51:36;;;;;;;1.50;1.27;;;14.30;98.00;;;;;;5091925;28;20463;-65
2021/07/02 00:54:03;;;;;;;1.40;1.17;;;14.40;98.00;;;;;;5091925;28;20583;-64
2021/07/02 00:56:31;;;;;;;1.53;1.40;;;14.50;98.00;;;;;;5091981;28;20469;-64
2021/07/02 00:58:58;;;;;;;1.33;1.10;;;14.60;98.00;;;;;;5091858;28;20558;-68
2021/07/02 01:01:25;;;;;;;1.40;1.30;;;14.50;98.00;;;;;;5091967;28;20998;-65
2021/07/02 01:03:52;;;;;;;1.77;1.40;;;14.50;98.00;;;;;;5091938;28;21166;-64
2021/07/02 01:06:19;;;;;;;1.20;1.03;;;14.40;98.00;;;;;;5091944;28;21460;-64
2021/07/02 01:08:48;;;;;;;1.40;1.20;;;14.40;98.00;;;;;;5091572;28;20563;-67
2021/07/02 01:11:17;;;;;;;1.77;1.50;;;14.50;98.00;;;;;;5077516;28;20487;-64
2021/07/02 01:13:45;;;;;;;1.20;1.10;;;14.40;98.00;;;;;;5095747;28;20472;-65
2021/07/02 01:16:12;;;;;;;1.20;1.20;;;14.40;98.00;;;;;;5095465;28;20522;-65
2021/07/02 01:18:39;;;;;;;1.50;1.10;;;14.40;98.00;;;;;;5095156;28;20539;-65
2021/07/02 01:21:08;;;;;;;1.20;1.10;;;14.40;98.00;;;;;;5095401;28;20458;-65
2021/07/02 01:23:35;;;;;;;1.30;1.27;;;14.30;98.00;;;;;;5094186;28;20459;-65
2021/07/02 01:26:03;;;;;;;1.50;1.20;;;14.20;98.00;;;;;;5095169;28;20501;-65
2021/07/02 01:28:30;;;;;;;2.00;1.20;;;14.20;98.00;;;;;;5095388;28;20452;-65
2021/07/02 01:30:59;;;;;;;1.60;1.37;;;14.20;98.00;;;;;;5095181;28;20462;-66
2021/07/02 01:33:26;;;;;;;1.40;1.30;;;14.10;98.00;;;;;;5095133;28;20496;-65
2021/07/02 01:35:53;;;;;;;1.20;1.00;;;14.20;98.00;;;;;;5095098;28;20457;-66
2021/07/02 01:38:21;;;;;;;2.07;1.20;;;14.20;98.00;;;;;;5095073;28;20549;-64
2021/07/02 01:40:48;;;;;;;1.80;1.40;;;14.30;98.00;;;;;;5093896;28;20521;-63
2021/07/02 01:43:15;;;;;;;1.50;1.20;;;14.20;98.00;;;;;;5093897;28;20869;-65
2021/07/02 01:45:43;;;;;;;1.20;1.07;;;14.10;98.00;;;;;;5095055;28;20459;-68
2021/07/02 01:48:13;;;;;;;1.20;1.00;;;14.00;98.00;;;;;;5094893;28;20873;-65
2021/07/02 01:50:40;;;;;;;1.20;1.00;;;14.00;98.00;;;;;;5094906;28;20492;-64
2021/07/02 01:53:08;;;;;;;1.20;1.00;;;14.00;98.00;;;;;;5094966;28;20518;-64
2021/07/02 01:55:37;;;;;;;1.43;1.23;;;14.00;98.00;;;;;;5094835;28;20456;-64
2021/07/02 01:58:04;;;;;;;1.20;1.07;;;14.00;98.00;;;;;;5094957;28;20490;-65
2021/07/02 02:00:31;;;;;;;1.20;1.00;;;14.00;98.00;;;;;;5094754;28;20516;-65
2021/07/02 02:02:58;;;;;;;1.50;1.30;;;14.10;98.00;;;;;;5094871;28;20461;-65
2021/07/02 02:05:25;;;;;;;1.70;1.20;;;14.00;98.00;;;;;;5094823;28;20445;-64
2021/07/02 02:07:52;;;;;;;1.30;1.10;;;14.10;98.00;;;;;;5094746;28;20879;-65
2021/07/02 02:10:19;;;;;;;1.33;1.30;;;14.20;98.00;;;;;;5094545;28;20459;-64
2021/07/02 02:12:48;;;;;;;1.20;1.00;;;14.30;98.00;;;;;;5093560;28;20488;-65
2021/07/02 02:15:15;;;;;;;1.23;1.17;;;14.40;98.00;;;;;;5094504;28;21033;-66
2021/07/02 02:17:42;;;;;;;1.50;1.23;;;14.40;98.00;;;;;;5094603;28;20459;-65
2021/07/02 02:20:11;;;;;;;1.67;1.50;;;14.40;98.00;;;;;;5094247;28;20461;-64
2021/07/02 02:22:39;;;;;;;1.20;1.07;;;14.50;98.00;;;;;;5093556;28;20467;-67
2021/07/02 02:25:08;;;;;;;1.20;1.00;;;14.50;98.00;;;;;;5094205;28;20994;-65
2021/07/02 02:27:36;;;;;;;1.20;1.10;;;14.50;98.00;;;;;;5094263;28;20494;-65
2021/07/02 02:30:05;;;;;;;1.20;1.10;;;14.50;98.00;;;;;;5092837;28;20475;-63
2021/07/02 02:32:32;;;;;;;1.20;1.10;;;14.40;98.00;;;;;;5094146;28;20458;-64
2021/07/02 02:34:59;;;;;;;1.20;1.17;;;14.40;98.00;;;;;;5093903;28;20888;-66
2021/07/02 02:37:28;;;;;;;1.20;1.10;;;14.40;98.00;;;;;;5093949;28;20464;-65
2021/07/02 02:39:55;;;;;;;1.20;1.00;;;14.40;98.00;;;;;;5093811;28;21072;-65
2021/07/02 02:42:22;;;;;;;1.20;0.90;;;14.40;98.00;;;;;;5093886;28;20461;-64
2021/07/02 02:44:49;;;;;;;1.93;1.23;;;14.40;98.00;;;;;;5093325;28;20979;-64
2021/07/02 02:47:19;;;;;;;1.30;1.10;;;14.30;98.00;;;;;;5093678;28;20463;-65
2021/07/02 02:49:46;;;;;;;1.20;1.10;;;14.30;98.00;;;;;;5093751;28;20484;-65
2021/07/02 02:52:12;;;;;;;2.37;1.20;;;14.20;98.00;;;;;;5093558;28;20526;-64
2021/07/02 02:54:40;;;;;;;1.60;1.23;;;14.20;98.00;;;;;;5093503;28;20941;-64
2021/07/02 02:57:08;;;;;;;1.20;1.10;;;14.30;98.00;;;;;;5093580;28;20496;-66
2021/07/02 02:59:37;;;;;;;1.60;1.20;;;14.20;98.00;;;;;;5093408;28;20861;-66
2021/07/02 03:02:06;;;;;;;2.57;1.40;;;14.00;98.00;;;;;;5093629;28;20463;-65
2021/07/02 03:04:35;;;;;;;1.40;1.10;;;13.90;98.00;;;;;;5093373;28;20865;-64
2021/07/02 03:07:03;;;;;;;1.30;1.10;;;13.80;98.00;;;;;;5092276;28;20457;-64
2021/07/02 03:09:30;;;;;;;1.33;1.10;;;13.80;98.00;;;;;;5093381;28;20525;-64
2021/07/02 03:11:57;;;;;;;1.97;1.30;;;13.70;98.00;;;;;;5075424;28;20970;-64
2021/07/02 03:14:24;;;;;;;1.83;1.67;;;13.60;98.00;;;;;;5093311;28;20454;-65
2021/07/02 03:16:52;;;;;;;1.87;1.10;;;13.50;98.00;;;;;;5092224;28;20535;-65
2021/07/02 03:19:20;;;;;;;1.20;1.20;;;13.40;98.00;;;;;;5092839;28;20545;-64
2021/07/02 03:21:49;;;;;;;1.30;1.20;;;13.40;98.00;;;;;;5093498;28;20450;-64
2021/07/02 03:24:16;;;;;;;1.30;1.00;;;13.40;98.00;;;;;;5093124;28;20517;-66
2021/07/02 03:26:43;;;;;;;1.20;1.00;;;13.30;98.00;;;;;;5093237;28;20459;-65
2021/07/02 03:29:15;;;;;;;1.20;1.00;;;13.30;98.00;;;;;;5093146;28;20453;-67
2021/07/02 03:31:42;;;;;;;1.50;1.10;;;13.20;98.00;;;;;;5092756;28;20484;-65
2021/07/02 03:34:09;;;;;;;1.20;1.00;;;13.20;98.00;;;;;;5092709;28;20840;-65
2021/07/02 03:36:37;;;;;;;1.60;1.20;;;13.10;98.00;;;;;;5093014;28;20455;-65
2021/07/02 03:39:06;;;;;;;1.20;1.10;;;13.00;98.00;;;;;;5093044;28;20796;-65
2021/07/02 03:41:33;;;;;;;1.30;1.30;;;13.00;98.00;;;;;;5093204;28;20527;-65
2021/07/02 03:44:00;;;;;;;1.20;1.00;;;13.00;98.00;;;;;;5092791;28;20455;-64
2021/07/02 03:46:30;;;;;;;1.20;1.00;;;12.90;98.00;;;;;;5093048;28;20526;-66
2021/07/02 03:48:56;;;;;;;1.43;1.30;;;12.90;98.00;;;;;;5092436;28;20485;-66
2021/07/02 03:51:24;;;;;;;1.77;1.20;;;12.90;98.00;;;;;;5092386;28;20494;-65
2021/07/02 03:53:51;;;;;;;2.27;1.27;;;12.90;98.00;;;;;;5092581;28;20463;-65
2021/07/02 03:56:19;;;;;;;2.07;1.20;;;12.80;98.00;;;;;;5092392;28;20453;-65
2021/07/02 03:58:46;;;;;;;1.20;1.10;;;12.80;98.00;;;;;;5092301;28;20545;-64
2021/07/02 04:01:13;;;;;;;1.20;1.00;;;12.80;98.00;;;;;;5092277;28;21099;-65
2021/07/02 04:03:40;;;;;;;1.20;1.00;;;12.80;98.00;;;;;;5092254;28;20616;-63
2021/07/02 04:06:07;;;;;;;1.60;1.10;;;12.80;98.00;;;;;;5092131;28;20949;-64
2021/07/02 04:08:37;;;;;;;1.50;1.10;;;12.80;98.00;;;;;;5091082;28;20469;-65
2021/07/02 04:11:06;;;;;;;1.30;1.10;;;12.90;98.00;;;;;;5092025;28;20490;-64
2021/07/02 04:13:34;;;;;;;1.20;1.00;;;12.90;98.00;;;;;;5091994;28;20458;-64
2021/07/02 04:16:01;;;;;;;1.50;1.40;;;12.90;98.00;;;;;;5092175;28;20464;-65
2021/07/02 04:18:28;;;;;;;1.50;1.30;;;12.90;98.00;;;;;;5092107;28;20459;-63
2021/07/02 04:20:56;;;;;;;1.20;1.10;;;13.00;98.00;;;;;;5092035;28;20966;-65
2021/07/02 04:23:23;;;;;;;1.20;1.10;;;13.00;98.00;;;;;;5091720;28;20452;-63
2021/07/02 04:25:50;;;;;;;1.20;1.00;;;13.10;98.00;;;;;;5092045;28;20456;-64
2021/07/02 04:28:17;;;;;;;1.40;1.30;;;13.20;98.00;;;;;;5092090;28;20510;-66
2021/07/02 04:30:45;;;;;;;2.20;1.27;;;13.20;98.00;;;;;;5091942;28;20942;-65
2021/07/02 04:33:12;;;;;;;1.60;1.30;;;13.40;98.00;;;;;;5091602;28;20509;-64
2021/07/02 04:35:41;;;;;;;1.73;1.30;;;13.50;98.00;;;;;;5092089;28;21009;-64
2021/07/02 04:38:09;;;;;;;2.43;1.33;;;13.40;98.00;;;;;;5090656;28;20467;-64
2021/07/02 04:40:36;;;;;;;2.80;1.20;;;13.60;98.00;;;;;;5091787;28;20493;-65
2021/07/02 04:43:03;;;;;;;1.20;1.00;;;13.60;98.00;;;;;;5091910;28;20949;-66
2021/07/02 04:45:30;;;;;;;1.43;1.20;;;13.80;98.00;;;;;;5091336;28;20517;-65
2021/07/02 04:47:58;;;;;;;3.00;1.80;;;13.90;98.00;;;;;;5091826;28;20879;-64
2021/07/02 04:50:26;;;;;;;1.20;1.00;;;14.00;98.00;;;;;;5091728;28;20927;-65
2021/07/02 04:52:54;;;;;;;1.57;1.53;;;14.10;98.00;;;;;;5091796;28;20952;-64
2021/07/02 04:55:22;;;;;;;1.50;1.10;;;14.20;98.00;;;;;;5091601;28;20460;-66
2021/07/02 04:57:51;;;;;;;1.53;1.17;;;14.40;98.00;;;;;;5090600;28;20448;-64
2021/07/02 05:00:18;;;;;;;1.27;1.27;;;14.40;98.00;;;;;;5091430;28;20479;-65
2021/07/02 05:02:45;;;;;;;1.63;1.37;;;14.30;98.00;;;;;;5092038;28;20662;-66
2021/07/02 05:05:14;;;;;;;4.60;1.77;;;14.20;98.00;;;;;;5091570;28;20542;-64
2021/07/02 05:07:41;;;;;;;1.30;1.10;;;14.30;98.00;;;;;;5091916;28;20455;-67
2021/07/02 05:10:10;;;;;;;1.20;1.00;;;14.40;98.00;;;;;;5091333;28;20501;-64
2021/07/02 05:12:37;;;;;;;1.20;1.10;;;14.50;98.00;;;;;;5091359;28;20556;-66
2021/07/02 05:15:06;;;;;;;1.90;1.10;;;14.50;98.00;;;;;;5090418;28;20457;-65
2021/07/02 05:17:33;;;;;;;1.30;1.13;;;14.60;98.00;;;;;;5091327;28;20523;-66
2021/07/02 05:20:00;;;;;;;1.30;1.10;;;14.70;98.00;;;;;;5091121;28;20570;-65
2021/07/02 05:22:29;;;;;;;1.97;1.30;;;14.80;98.00;;;;;;5090277;28;20483;-64
2021/07/02 05:24:57;;;;;;;1.40;1.27;;;15.00;98.00;;;;;;5091448;28;20459;-64
2021/07/02 05:27:24;;;;;;;1.20;1.00;;;15.00;98.00;;;;;;5091414;28;20519;-65
2021/07/02 05:29:51;;;;;;;1.30;1.20;;;15.00;98.00;;;;;;5091352;28;20982;-66
2021/07/02 05:32:18;;;;;;;1.30;1.20;;;14.90;98.00;;;;;;5091306;28;20507;-64
2021/07/02 05:34:46;;;;;;;1.30;1.10;;;15.00;98.00;;;;;;5090105;28;20453;-66
2021/07/02 05:37:13;;;;;;;2.30;1.33;;;14.90;98.00;;;;;;5091388;28;20467;-65
2021/07/02 05:39:41;;;;;;;1.30;1.20;;;15.00;98.00;;;;;;5091214;28;20485;-65
2021/07/02 05:42:21;;;;;;;1.30;1.20;;;15.10;98.00;;;;;;5091246;28;20567;-65
2021/07/02 05:44:48;;;;;;;1.67;1.30;;;15.40;98.00;;;;;;5090193;28;20462;-64
2021/07/02 05:47:16;;;;;;;2.00;1.07;;;15.40;98.00;;;;;;5091312;28;20965;-65
2021/07/02 05:49:43;;;;;;;1.30;1.20;;;15.30;98.00;;;;;;5091020;28;20550;-66
2021/07/02 05:52:10;;;;;;;1.30;1.30;;;15.50;98.00;;;;;;5091174;28;20478;-66
2021/07/02 05:54:37;;;;;;;1.30;1.10;;;15.50;98.00;;;;;;5091070;28;20514;-70
2021/07/02 05:57:05;;;;;;;2.07;1.47;;;15.80;98.00;;;;;;5093042;28;20902;-68
2021/07/02 05:59:32;;;;;;;1.20;1.10;;;15.90;98.00;;;;;;5094538;28;20547;-68
2021/07/02 06:01:59;;;;;;;1.60;1.30;;;15.80;98.00;;;;;;5094669;28;20860;-64
2021/07/02 06:04:26;;;;;;;1.83;1.30;;;15.80;98.00;;;;;;5094476;28;20993;-65
2021/07/02 06:06:53;;;;;;;1.30;1.30;;;15.70;98.00;;;;;;5094672;28;20493;-66
2021/07/02 06:09:20;;;;;;;1.83;1.23;;;15.70;98.00;;;;;;5094471;28;20452;-66
2021/07/02 06:11:48;;;;;;;1.60;1.30;;;15.80;98.00;;;;;;5094674;28;20463;-65
2021/07/02 06:14:17;;;;;;;1.97;1.37;;;15.90;98.00;;;;;;5093410;28;20499;-65
2021/07/02 06:16:44;;;;;;;1.47;1.20;;;16.00;98.00;;;;;;5094443;28;20941;-65
2021/07/02 06:19:11;;;;;;;1.30;1.20;;;16.10;98.00;;;;;;5093266;28;20525;-67
2021/07/02 06:21:38;;;;;;;2.00;1.30;;;16.20;98.00;;;;;;5094665;28;20486;-66
2021/07/02 06:24:05;;;;;;;1.50;1.20;;;16.20;98.00;;;;;;5094451;28;20563;-66
2021/07/02 06:26:32;;;;;;;1.30;1.10;;;16.30;98.00;;;;;;5094535;28;20591;-66
2021/07/02 06:28:59;;;;;;;1.30;1.30;;;16.50;98.00;;;;;;5094176;28;20494;-66
2021/07/02 06:31:30;;;;;;;1.53;1.10;;;16.50;98.00;;;;;;5094179;28;20797;-65
2021/07/02 06:33:57;;;;;;;2.17;1.60;;;16.40;98.00;;;;;;5094262;28;20455;-66
2021/07/02 06:36:33;;;;;;;1.97;1.70;;;16.50;98.00;;;;;;5093958;28;20526;-65
2021/07/02 06:39:00;;;;;;;1.27;1.17;;;16.60;98.00;;;;;;5093582;28;20482;-66
2021/07/02 06:41:27;;;;;;;1.30;1.20;;;16.60;98.00;;;;;;5094042;28;20455;-66
2021/07/02 06:43:54;;;;;;;1.70;1.50;;;16.50;98.00;;;;;;5093972;28;20898;-65
2021/07/02 06:46:21;;;;;;;1.60;1.27;;;16.60;98.00;;;;;;5093837;28;20451;-66
2021/07/02 06:48:49;;;;;;;1.30;1.10;;;16.60;98.00;;;;;;5093777;28;20492;-66
2021/07/02 06:51:16;;;;;;;1.70;1.27;;;16.80;98.00;;;;;;5093569;28;20455;-68
2021/07/02 06:53:45;;;;;;;1.20;1.10;;;17.00;98.00;;;;;;5093643;28;20520;-67
2021/07/02 06:56:13;;;;;;;1.80;1.20;;;17.20;98.00;;;;;;5093369;28;20472;-69
2021/07/02 06:58:40;;;;;;;1.30;1.20;;;17.40;98.00;;;;;;5093027;28;20459;-68
2021/07/02 07:01:07;;;;;;;1.50;1.23;;;17.60;98.00;;;;;;5092678;28;20487;-69
2021/07/02 07:03:34;;;;;;;1.20;1.10;;;17.80;98.00;;;;;;5092744;28;20521;-68
2021/07/02 07:06:04;;;;;;;1.50;1.30;;;18.00;98.00;;;;;;5092692;28;20471;-68
2021/07/02 07:08:31;;;;;;;2.07;1.20;;;18.30;98.00;;;;;;5092845;28;20455;-69
2021/07/02 07:10:58;;;;;;;1.63;1.37;;;18.40;98.00;;;;;;5093326;28;20943;-70
2021/07/02 07:13:25;;;;;;;1.40;1.20;;;18.70;98.00;;;;;;5092155;28;20592;-70
2021/07/02 07:15:52;;;;;;;1.70;1.27;;;18.90;98.00;;;;;;5093230;28;20533;-68
2021/07/02 07:18:19;;;;;;;1.30;1.20;;;19.00;98.00;;;;;;5093108;28;20598;-69
2021/07/02 07:20:49;;;;;;;2.13;1.80;;;19.20;98.00;;;;;;5093027;28;20488;-69
2021/07/02 07:23:20;;;;;;;1.20;1.10;;;19.30;98.00;;;;;;5092115;28;20934;-69
2021/07/02 07:25:48;;;;;;;1.53;1.30;;;19.50;98.00;;;;;;5093217;28;20455;-69
2021/07/02 07:28:16;;;;;;;1.80;1.27;;;19.60;98.00;;;;;;5093112;28;20456;-69
2021/07/02 07:30:45;;;;;;;1.90;1.53;;;19.30;98.00;;;;;;5091629;28;20572;-66
2021/07/02 07:33:12;;;;;;;1.57;1.37;;;19.10;98.00;;;;;;5092509;28;20699;-69
2021/07/02 07:35:41;;;;;;;1.60;1.53;;;18.90;98.00;;;;;;5092452;28;20485;-67
2021/07/02 07:38:08;;;;;;;1.50;1.40;;;18.90;98.00;;;;;;5092485;28;20452;-68
2021/07/02 07:40:37;;;;;;;1.27;1.23;;;18.80;98.00;;;;;;5091155;28;20484;-68
2021/07/02 07:43:05;;;;;;;2.00;1.63;;;18.90;98.00;;;;;;5092518;28;20459;-67
2021/07/02 07:45:32;;;;;;;1.40;1.30;;;18.90;98.00;;;;;;5092120;28;20455;-66
2021/07/02 07:47:59;;;;;;;1.60;1.20;;;19.00;98.00;;;;;;5091908;28;20971;-69
2021/07/02 07:50:27;;;;;;;1.93;1.70;;;19.10;98.00;;;;;;5092227;28;20857;-67
2021/07/02 07:52:59;;;;;;;1.40;1.30;;;19.20;98.00;;;;;;5092319;28;20452;-69
2021/07/02 07:55:27;;;;;;;1.53;1.23;;;19.20;98.00;;;;;;5091656;28;20463;-67
2021/07/02 07:57:56;;;;;;;1.57;1.30;;;19.00;98.00;;;;;;5090515;28;20776;-67
2021/07/02 08:00:28;;;;;;;1.50;1.37;;;18.80;98.00;;;;;;5073293;28;20572;-67
2021/07/02 08:03:05;;;;;;;1.83;1.37;;;18.50;98.00;;;;;;5074355;28;20457;-69
2021/07/02 08:05:33;;;;;;;1.30;1.30;;;18.40;98.00;;;;;;5074006;28;20457;-68
2021/07/02 08:08:00;;;;;;;1.77;1.57;;;18.30;98.00;;;;;;5088613;28;20867;-68
2021/07/02 08:10:27;;;;;;;1.60;1.30;;;18.30;98.00;;;;;;5090633;28;20509;-69
2021/07/02 08:12:56;;;;;;;1.70;1.67;;;18.40;98.00;;;;;;5091609;28;20514;-67
2021/07/02 08:15:23;;;;;;;1.60;1.20;;;18.60;98.00;;;;;;5091696;28;20481;-68
2021/07/02 08:17:50;;;;;;;1.30;1.30;;;18.90;98.00;;;;;;5091510;28;20448;-68
2021/07/02 08:20:17;;;;;;;1.40;1.37;;;19.30;98.00;;;;;;5089776;28;20534;-69
2021/07/02 08:22:44;;;;;;;1.20;1.10;;;19.50;98.00;;;;;;5091589;28;20532;-70
2021/07/02 08:25:12;;;;;;;1.93;1.50;;;19.60;98.00;;;;;;5091276;28;20513;-69
2021/07/02 08:30:25;;;;;;;1.40;1.13;;;19.20;98.00;;;;;;5091438;28;20447;-70
2021/07/02 08:32:52;;;;;;;1.40;1.20;;;19.00;98.00;;;;;;5091574;28;20459;-71
2021/07/02 08:35:22;;;;;;;1.60;1.43;;;18.80;98.00;;;;;;5091559;28;20464;-69
2021/07/02 08:37:51;;;;;;;1.80;1.40;;;18.70;98.00;;;;;;5090676;28;20456;-69
2021/07/02 08:40:19;;;;;;;1.73;1.40;;;18.70;98.00;;;;;;5083841;28;20496;-70
2021/07/02 08:42:46;;;;;;;2.70;1.37;;;18.90;98.00;;;;;;5078240;28;20513;-68
2021/07/02 08:45:13;;;;;;;1.93;1.50;;;19.10;98.00;;;;;;5085165;28;20456;-70
2021/07/02 08:47:43;;;;;;;1.60;1.30;;;19.20;98.00;;;;;;5091765;28;20505;-70
2021/07/02 08:50:11;;;;;;;1.60;1.40;;;19.10;98.00;;;;;;5091926;28;20509;-70
2021/07/02 08:52:43;;;;;;;1.20;1.00;;;18.90;98.00;;;;;;5091931;28;20521;-69
2021/07/02 08:55:13;;;;;;;1.90;1.60;;;18.80;98.00;;;;;;5091175;28;20526;-68
2021/07/02 08:57:41;;;;;;;2.17;1.57;;;18.70;98.00;;;;;;5089950;28;20465;-69
2021/07/02 09:00:09;;;;;;;1.20;1.10;;;18.90;98.00;;;;;;5089302;28;20492;-69
2021/07/02 09:02:39;;;;;;;1.30;1.30;;;19.10;98.00;;;;;;5090974;28;20468;-68
2021/07/02 09:05:32;;;;;;;1.50;1.10;;;19.40;98.00;;;;;;5089562;28;20460;-69
2021/07/02 09:08:00;;;;;;;1.63;1.57;;;19.70;98.00;;;;;;5091923;28;20452;-70
2021/07/02 09:10:37;;;;;;;2.63;1.50;;;20.00;98.00;;;;;;5091437;28;20535;-70
2021/07/02 09:13:05;;;;;;;2.03;1.33;;;20.10;92.50;;;;;;5091045;28;20532;-70
2021/07/02 09:15:32;;;;;;;2.60;1.43;;;20.20;95.30;;;;;;5091307;28;20938;-69
2021/07/02 09:18:01;;;;;;;1.67;1.40;;;20.50;92.40;;;;;;5089777;28;20451;-69
2021/07/02 09:20:35;;;;;;;3.37;1.50;;;20.60;91.60;;;;;;5090097;28;20553;-70
2021/07/02 09:23:04;;;;;;;1.70;1.47;;;20.50;90.20;;;;;;5091399;28;20459;-69
2021/07/02 09:25:33;;;;;;;1.67;1.30;;;20.40;89.30;;;;;;5091250;28;20460;-70
2021/07/02 09:28:03;;;;;;;1.50;1.40;;;20.40;92.80;;;;;;5091443;28;20513;-69
2021/07/02 09:30:32;;;;;;;1.67;1.40;;;20.50;91.30;;;;;;5092305;28;20808;-69
2021/07/02 09:33:00;;;;;;;1.73;1.60;;;20.60;91.20;;;;;;5095247;28;20864;-70
2021/07/02 09:35:35;;;;;;;1.83;1.57;;;20.50;89.30;;;;;;5095054;28;20463;-69
2021/07/02 09:38:03;;;;;;;2.07;1.60;;;20.80;93.40;;;;;;5095187;28;20561;-69
2021/07/02 09:40:34;;;;;;;1.80;1.40;;;20.90;91.80;;;;;;5095015;28;20923;-69
2021/07/02 09:43:04;;;;;;;1.73;1.40;;;21.00;94.00;;;;;;5093873;28;20463;-68
2021/07/02 09:45:31;;;;;;;1.53;1.50;;;21.10;90.80;;;;;;5094892;28;20969;-69
2021/07/02 09:48:07;;;;;;;1.53;1.30;;;21.00;90.30;;;;;;5095040;28;20456;-69
2021/07/02 09:50:37;;;;;;;1.70;1.57;;;21.20;90.20;;;;;;5094924;28;20836;-70
2021/07/02 09:53:09;;;;;;;1.53;1.43;;;21.40;88.90;;;;;;5095053;28;21043;-70
2021/07/02 09:55:43;;;;;;;1.40;1.20;;;21.60;87.90;;;;;;5093599;28;20540;-69
2021/07/02 09:58:12;;;;;;;2.63;1.40;;;21.70;86.30;;;;;;5095082;28;20451;-70
2021/07/02 10:00:45;;;;;;;1.87;1.53;;;21.60;85.80;;;;;;5094719;28;21016;-71
2021/07/02 10:03:12;;;;;;;2.07;1.30;;;21.40;88.10;;;;;;5094918;28;20455;-70
2021/07/02 10:05:55;;;;;;;1.40;1.30;;;21.20;90.90;;;;;;5094849;28;20509;-69
2021/07/02 10:08:24;;;;;;;1.33;1.20;;;20.90;90.30;;;;;;5094883;28;20460;-69
2021/07/02 10:10:53;;;;;;;2.27;1.70;;;20.70;90.90;;;;;;5093392;28;20490;-70
2021/07/02 10:13:24;;;;;;;2.17;1.63;;;20.60;92.30;;;;;;5094816;28;20521;-70
2021/07/02 10:15:51;;;;;;;1.40;1.20;;;20.60;94.30;;;;;;5094600;28;20453;-71
2021/07/02 10:18:19;;;;;;;3.30;1.97;;;20.70;91.00;;;;;;5094512;28;20953;-69
2021/07/02 10:20:47;;;;;;;1.30;1.23;;;20.80;93.00;;;;;;5094447;28;20488;-69
2021/07/02 10:23:27;;;;;;;2.70;1.53;;;21.20;93.00;;;;;;5094127;28;20474;-69
2021/07/02 10:25:56;;;;;;;1.80;1.60;;;21.60;91.20;;;;;;5094266;28;20474;-69
2021/07/02 10:28:26;;;;;;;1.60;1.40;;;21.50;89.90;;;;;;5092988;28;20460;-68
2021/07/02 10:30:54;;;;;;;1.60;1.50;;;21.40;90.30;;;;;;5093369;28;20456;-68
2021/07/02 10:33:21;;;;;;;1.70;1.63;;;21.50;90.30;;;;;;5093667;28;20938;-69
2021/07/02 10:35:54;;;;;;;1.53;1.50;;;21.70;89.90;;;;;;5093574;28;20552;-68
2021/07/02 10:38:24;;;;;;;1.50;1.43;;;21.90;89.10;;;;;;5093572;28;20448;-67
2021/07/02 10:40:51;;;;;;;2.03;1.70;;;22.20;88.10;;;;;;5093187;28;20488;-69
2021/07/02 10:43:21;;;;;;;4.83;1.60;;;22.50;84.90;;;;;;5092737;28;20835;-68
2021/07/02 10:46:11;;;;;;;1.33;1.30;;;22.70;84.60;;;;;;5093395;28;20513;-67
2021/07/02 10:49:02;;;;;;;1.30;1.20;;;22.80;83.50;;;;;;5093516;28;20517;-69
2021/07/02 10:51:46;;;;;;;1.70;1.60;;;22.70;83.60;;;;;;5089961;28;20954;-69
2021/07/02 10:54:40;;;;;;;1.20;1.10;;;22.80;81.80;;;;;;5093004;28;20455;-70
2021/07/02 10:57:15;;;;;;;1.30;1.20;;;22.90;84.00;;;;;;5093181;28;20471;-69
2021/07/02 11:00:10;;;;;;;2.27;1.70;;;22.80;84.20;;;;;;5093224;28;20497;-70
2021/07/02 11:02:38;;;;;;;1.80;1.57;;;22.70;84.90;;;;;;5093291;28;20480;-69
2021/07/02 11:05:32;;;;;;;3.10;1.90;;;22.90;84.90;;;;;;5093202;28;20961;-70
2021/07/02 11:08:00;;;;;;;1.50;1.50;;;23.20;84.20;;;;;;5093030;28;20452;-70
2021/07/02 11:10:27;;;;;;;1.60;1.50;;;23.50;86.10;;;;;;5092760;28;21064;-70
2021/07/02 11:13:03;;;;;;;2.37;1.40;;;23.80;86.10;;;;;;5092943;28;20516;-71
2021/07/02 11:15:31;;;;;;;2.90;1.60;;;23.80;82.70;;;;;;5092952;28;20463;-70
2021/07/02 11:18:19;;;;;;;1.63;1.53;;;23.70;84.30;;;;;;5093044;28;20505;-70
2021/07/02 11:20:47;;;;;;;1.63;1.40;;;23.80;81.50;;;;;;5089043;28;20476;-71
2021/07/02 11:23:22;;;;;;;1.70;1.53;;;23.90;81.20;;;;;;5092818;28;20513;-72
2021/07/02 11:25:59;;;;;;;1.80;1.80;;;24.00;80.30;;;;;;5092813;28;20460;-69
2021/07/02 11:28:50;;;;;;;1.30;1.30;;;23.80;81.20;;;;;;5083633;28;20484;-69
2021/07/02 11:31:18;;;;;;;1.67;1.50;;;23.80;81.20;;;;;;5080581;28;20467;-71
2021/07/02 11:33:49;;;;;;;1.40;1.20;;;24.00;82.70;;;;;;5071394;28;20480;-71
2021/07/02 11:36:19;;;;;;;1.63;1.37;;;23.90;80.20;;;;;;5070191;28;20460;-68
2021/07/02 11:38:49;;;;;;;1.53;1.30;;;23.70;80.50;;;;;;5072778;28;20785;-68
2021/07/02 11:41:29;;;;;;;1.87;1.40;;;24.10;84.80;;;;;;5071169;28;20476;-70
2021/07/02 11:44:02;;;;;;;1.20;1.20;;;24.30;80.60;;;;;;5072055;28;20460;-70
2021/07/02 11:46:29;;;;;;;2.47;1.63;;;24.80;79.50;;;;;;5072156;28;20468;-70
2021/07/02 11:48:57;;;;;;;1.83;1.30;;;25.00;76.70;;;;;;5072021;28;20522;-71
2021/07/02 11:51:26;;;;;;;1.97;1.47;;;24.70;78.70;;;;;;5071501;28;20445;-72
2021/07/02 11:53:55;;;;;;;1.97;1.50;;;24.40;77.10;;;;;;5070579;28;20461;-71
2021/07/02 11:56:23;;;;;;;1.30;1.20;;;24.70;77.80;;;;;;5071899;28;20924;-70
2021/07/02 11:58:52;;;;;;;1.50;1.20;;;24.80;77.30;;;;;;5071739;28;20452;-70
2021/07/02 12:01:22;;;;;;;2.70;1.80;;;24.70;76.90;;;;;;5071238;28;20480;-70
2021/07/02 12:03:50;;;;;;;1.50;1.40;;;24.60;78.40;;;;;;5071961;28;20461;-70
2021/07/02 12:06:25;;;;;;;2.20;1.57;;;25.00;78.80;;;;;;5071339;28;20469;-71
2021/07/02 12:08:55;;;;;;;1.73;1.20;;;24.90;76.30;;;;;;5072022;28;20822;-69
2021/07/02 12:11:31;;;;;;;1.50;1.20;;;25.10;75.50;;;;;;5071113;28;20457;-68
2021/07/02 12:13:59;;;;;;;1.30;1.30;;;25.00;75.40;;;;;;5071711;28;20452;-69
2021/07/02 12:16:33;;;;;;;1.90;1.50;;;25.10;74.80;;;;;;5071328;28;20464;-67
2021/07/02 12:19:01;;;;;;;2.30;1.70;;;25.10;80.20;;;;;;5071051;28;20508;-69
2021/07/02 12:21:31;;;;;;;1.60;1.33;;;25.10;73.70;;;;;;5070784;28;20489;-70
2021/07/02 12:24:02;;;;;;;1.73;1.37;;;25.10;76.70;;;;;;5071465;28;20452;-67
2021/07/02 12:26:33;;;;;;;2.13;1.50;;;25.10;73.50;;;;;;5071382;28;20514;-68
2021/07/02 12:29:12;;;;;;;1.30;1.20;;;24.50;75.10;;;;;;5071429;28;20492;-70
2021/07/02 12:31:44;;;;;;;2.33;1.80;;;24.40;75.70;;;;;;5071564;28;20486;-70
2021/07/02 12:34:19;;;;;;;1.97;1.60;;;24.20;75.80;;;;;;5090706;28;20456;-69
2021/07/02 12:37:03;;;;;;;1.60;1.30;;;24.00;77.00;;;;;;5091580;28;20471;-69
2021/07/02 12:39:38;;;;;;;1.53;1.50;;;24.40;79.00;;;;;;5091476;28;20513;-70
2021/07/02 12:42:11;;;;;;;1.50;1.30;;;24.70;76.10;;;;;;5090182;28;20566;-70
2021/07/02 12:44:49;;;;;;;1.50;1.30;;;25.00;75.20;;;;;;5090461;28;20464;-69
2021/07/02 12:47:18;;;;;;;1.93;1.40;;;25.40;76.00;;;;;;5090601;28;20459;-69
2021/07/02 12:49:48;;;;;;;1.40;1.30;;;25.60;74.40;;;;;;5091347;28;20472;-69
2021/07/02 12:55:08;;;;;;;1.60;1.40;;;26.00;74.10;;;;;;5091519;28;20452;-69
2021/07/02 12:57:37;;;;;;;1.60;1.47;;;26.20;75.10;;;;;;5089984;28;20463;-69
2021/07/02 13:00:07;;;;;;;1.90;1.50;;;26.00;72.30;;;;;;5091245;28;20490;-70
2021/07/02 13:02:39;;;;;;;1.60;1.40;;;25.40;73.80;;;;;;5091185;28;20483;-70
2021/07/02 13:05:11;;;;;;;3.20;1.70;;;25.10;76.40;;;;;;5091747;28;20448;-69